createdAt,value
2022-09-06T05:00:41.609Z,82.40
2022-09-06T05:05:45.304Z,82.10
2022-09-06T05:10:52.542Z,82.20
2022-09-06T05:15:57.494Z,82.40
2022-09-06T05:21:01.366Z,82.70
2022-09-06T05:26:06.225Z,82.90
2022-09-06T05:31:12.855Z,82.90
2022-09-06T05:36:16.614Z,83.10
2022-09-06T05:41:20.428Z,83.20
2022-09-06T05:46:26.524Z,83.50
2022-09-06T05:51:30.178Z,83.60
2022-09-06T05:56:33.841Z,83.60
2022-09-06T06:01:38.877Z,83.70
2022-09-06T06:06:42.601Z,83.80
2022-09-06T06:11:46.234Z,83.80
2022-09-06T06:16:52.083Z,83.90
2022-09-06T06:21:56.311Z,84.00
2022-09-06T06:26:59.916Z,84.00
2022-09-06T06:32:05.336Z,84.10
2022-09-06T06:37:09.089Z,83.90
2022-09-06T06:42:13.174Z,83.60
2022-09-06T06:47:19.085Z,83.30
2022-09-06T06:52:24.274Z,83.00
2022-09-06T06:57:27.906Z,82.80
2022-09-06T07:02:33.124Z,82.80
2022-09-06T07:07:39.507Z,82.60
2022-09-06T07:12:45.170Z,82.50
2022-09-06T07:17:50.166Z,82.40
2022-09-06T07:28:24.795Z,81.60
2022-09-06T07:33:30.383Z,80.90
2022-09-06T07:38:34.679Z,80.50
2022-09-06T07:43:38.642Z,80.80
2022-09-06T07:48:45.428Z,81.10
2022-09-06T07:53:57.947Z,81.50
2022-09-06T07:59:10.923Z,81.60
2022-09-06T08:04:16.343Z,81.40
2022-09-06T08:09:19.954Z,81.80
2022-09-06T08:14:23.567Z,81.90
2022-09-06T08:19:29.436Z,82.10
2022-09-06T08:24:35.733Z,82.40
2022-09-06T08:29:39.944Z,83.00
2022-09-06T08:34:44.930Z,83.40
2022-09-06T08:39:48.562Z,83.50
2022-09-06T08:50:06.535Z,83.30
2022-09-06T08:55:28.787Z,83.80
2022-09-06T09:00:34.281Z,84.20
2022-09-06T09:05:40.951Z,84.50
2022-09-06T09:10:47.327Z,84.90
2022-09-06T09:15:51.096Z,85.40
2022-09-06T09:20:56.283Z,85.20
2022-09-06T09:26:04.012Z,85.60
2022-09-06T09:31:08.115Z,85.60
2022-09-06T09:36:15.233Z,86.00
2022-09-06T09:41:28.366Z,86.60
2022-09-06T09:46:34.399Z,87.10
2022-09-06T09:51:40.997Z,88.10
2022-09-06T09:56:48.785Z,89.10
2022-09-06T10:01:56.406Z,89.50
2022-09-06T10:07:14.245Z,89.90
2022-09-06T10:12:29.554Z,90.10
2022-09-06T10:17:35.411Z,90.10
2022-09-06T10:22:52.354Z,90.40
2022-09-06T10:28:34.804Z,90.80
2022-09-06T10:33:49.749Z,91.10
2022-09-06T10:39:01.686Z,91.30
2022-09-06T10:44:23.354Z,91.50
2022-09-06T10:49:28.598Z,91.80
2022-09-06T10:54:39.447Z,91.80
2022-09-06T10:59:51.459Z,91.70
2022-09-06T11:10:31.289Z,91.30
2022-09-06T11:15:44.341Z,91.30
2022-09-06T11:20:57.206Z,91.40
2022-09-06T11:26:34.478Z,91.40
2022-09-06T11:37:27.285Z,91.30
2022-09-06T11:43:03.228Z,90.10
2022-09-06T11:48:35.692Z,88.60
2022-09-06T11:54:15.249Z,86.50
2022-09-06T11:59:35.255Z,86.30
2022-09-06T12:05:27.890Z,86.70
2022-09-06T12:10:52.579Z,88.30
2022-09-06T12:15:57.712Z,89.00
2022-09-06T12:21:05.241Z,89.20
2022-09-06T12:26:09.934Z,88.70
2022-09-06T12:31:40.354Z,88.60
2022-09-06T12:36:53.934Z,88.50
2022-09-06T12:42:01.064Z,88.60
2022-09-06T12:47:13.089Z,88.80
2022-09-06T12:52:20.672Z,89.20
2022-09-06T12:57:25.984Z,89.90
2022-09-06T13:02:38.367Z,90.40
2022-09-06T13:07:45.593Z,91.00
2022-09-06T13:12:53.102Z,91.20
2022-09-06T13:18:22.326Z,91.40
2022-09-06T13:23:26.537Z,91.30
2022-09-06T13:28:32.004Z,91.00
2022-09-06T13:33:38.483Z,90.70
2022-09-06T13:38:43.709Z,90.50
2022-09-06T13:43:48.732Z,90.10
2022-09-06T13:48:56.563Z,90.10
2022-09-06T13:54:07.944Z,90.00
2022-09-06T13:59:12.849Z,89.90
2022-09-06T14:04:21.542Z,89.60
2022-09-06T14:09:25.435Z,89.80
2022-09-06T14:14:29.556Z,88.50
2022-09-06T14:19:34.589Z,87.80
2022-09-06T14:24:38.359Z,87.20
2022-09-06T14:29:42.273Z,87.50
2022-09-06T14:34:47.397Z,86.30
2022-09-06T14:39:51.141Z,86.00
2022-09-06T14:44:54.899Z,86.20
2022-09-06T14:50:00.243Z,86.40
2022-09-06T14:55:04.089Z,86.40
2022-09-06T15:00:11.098Z,86.30
2022-09-06T15:05:16.207Z,86.40
2022-09-06T15:10:20.892Z,86.00
2022-09-06T15:15:24.672Z,85.70
2022-09-06T15:20:29.812Z,85.80
2022-09-06T15:25:33.420Z,85.80
2022-09-06T15:30:39.850Z,85.60
2022-09-06T15:35:45.433Z,86.00
2022-09-06T15:40:49.048Z,86.80
2022-09-06T15:45:53.360Z,87.30
2022-09-06T15:50:58.366Z,87.70
2022-09-06T15:56:03.125Z,87.30
2022-09-06T16:01:09.260Z,87.30
2022-09-06T16:11:28.728Z,90.20
2022-09-06T16:16:32.725Z,90.30
2022-09-06T16:21:39.402Z,90.30
2022-09-06T16:26:44.645Z,89.70
2022-09-06T16:31:48.928Z,89.70
2022-09-06T16:36:55.229Z,89.50
2022-09-06T16:41:58.863Z,90.00
2022-09-06T16:47:04.118Z,90.00
2022-09-06T16:52:09.214Z,90.00
2022-09-06T16:57:12.825Z,90.00
2022-09-06T17:02:16.576Z,90.00
2022-09-06T17:07:21.769Z,90.00
2022-09-06T17:12:25.390Z,90.00
2022-09-06T17:17:29.007Z,90.00
2022-09-06T17:22:34.034Z,89.60
2022-09-06T17:27:37.822Z,89.30
2022-09-06T17:32:41.649Z,89.30
2022-09-06T17:37:46.633Z,89.20
2022-09-06T17:42:50.215Z,89.30
2022-09-06T17:47:53.852Z,89.40
2022-09-06T17:53:00.067Z,89.90
2022-09-06T17:58:03.770Z,90.10
2022-09-06T18:03:07.612Z,90.20
2022-09-06T18:08:13.051Z,90.50
2022-09-06T18:13:16.825Z,90.70
2022-09-06T18:18:20.514Z,90.70
2022-09-06T18:23:25.912Z,90.70
2022-09-06T18:28:31.114Z,90.60
2022-09-06T18:33:35.092Z,90.50
2022-09-06T18:38:42.722Z,90.40
2022-09-06T18:43:46.761Z,90.40
2022-09-06T18:48:50.365Z,90.30
2022-09-06T18:53:57.682Z,90.30
2022-09-06T18:59:02.254Z,90.20
2022-09-06T19:04:06.163Z,90.20
2022-09-06T19:09:13.528Z,90.10
2022-09-06T19:14:17.126Z,90.30
2022-09-06T19:19:21.737Z,90.40
2022-09-06T19:24:26.759Z,90.50
2022-09-06T19:29:30.536Z,90.50
2022-09-06T19:34:34.629Z,90.70
2022-09-06T19:39:39.731Z,90.70
2022-09-06T19:44:43.873Z,90.70
2022-09-06T19:49:47.498Z,90.70
2022-09-06T19:54:53.649Z,90.60
2022-09-06T19:59:57.642Z,90.60
2022-09-06T20:05:01.254Z,90.60
2022-09-06T20:10:07.035Z,90.60
2022-09-06T20:15:13.291Z,90.50
2022-09-06T20:20:17.088Z,90.50
2022-09-06T20:25:22.060Z,90.50
2022-09-06T20:30:25.955Z,90.50
2022-09-06T20:35:29.856Z,90.50
2022-09-06T20:40:34.860Z,90.60
2022-09-06T20:45:38.744Z,90.60
2022-09-06T20:50:42.359Z,90.70
2022-09-06T20:55:57.503Z,90.80
2022-09-06T21:01:06.381Z,90.90
2022-09-06T21:06:12.316Z,90.90
2022-09-06T21:11:17.772Z,91.00
2022-09-06T21:16:24.717Z,91.20
2022-09-06T21:21:29.833Z,91.30
2022-09-06T21:26:35.543Z,91.30
2022-09-06T21:31:39.411Z,91.50
2022-09-06T21:36:43.604Z,91.50
2022-09-06T21:41:48.650Z,91.50
2022-09-06T21:46:52.539Z,91.60
2022-09-06T21:51:56.225Z,91.70
2022-09-06T21:57:01.179Z,91.70
2022-09-06T22:02:05.169Z,91.80
2022-09-06T22:07:08.825Z,92.00
2022-09-06T22:12:13.808Z,92.00
2022-09-06T22:17:17.487Z,92.10
2022-09-06T22:22:21.112Z,92.10
2022-09-06T22:27:26.070Z,92.50
